createdAt,value
2022-12-12T00:00:18.514Z,30.37
2022-12-12T00:02:45.624Z,29.43
2022-12-12T00:05:16.735Z,36.50
2022-12-12T00:07:46.316Z,31.33
2022-12-12T00:10:13.491Z,33.37
2022-12-12T00:12:41.021Z,30.60
2022-12-12T00:15:08.703Z,31.47
2022-12-12T00:17:35.544Z,32.87
2022-12-12T00:20:02.340Z,33.70
2022-12-12T00:22:29.057Z,36.93
2022-12-12T00:24:56.027Z,34.17
2022-12-12T00:27:22.828Z,30.77
2022-12-12T00:29:56.009Z,32.30
2022-12-12T00:32:23.332Z,29.50
2022-12-12T00:34:50.415Z,30.50
2022-12-12T00:37:17.612Z,31.23
2022-12-12T00:39:44.411Z,32.97
2022-12-12T00:42:11.133Z,29.53
2022-12-12T00:44:37.862Z,34.83
2022-12-12T00:47:05.086Z,34.43
2022-12-12T00:49:32.200Z,30.17
2022-12-12T00:51:58.903Z,30.80
2022-12-12T00:54:25.945Z,33.90
2022-12-12T00:56:52.690Z,31.27
2022-12-12T00:59:19.833Z,34.33
2022-12-12T01:01:47.408Z,32.80
2022-12-12T01:04:14.541Z,31.33
2022-12-12T01:06:41.355Z,29.07
2022-12-12T01:09:08.109Z,33.27
2022-12-12T01:11:34.906Z,34.47
2022-12-12T01:14:04.930Z,33.73
2022-12-12T01:16:32.107Z,32.37
2022-12-12T01:18:59.234Z,37.20
2022-12-12T01:21:25.988Z,31.80
2022-12-12T01:23:52.757Z,29.90
2022-12-12T01:26:22.467Z,31.57
2022-12-12T01:28:50.366Z,35.83
2022-12-12T01:31:17.170Z,31.67
2022-12-12T01:33:47.274Z,36.90
2022-12-12T01:36:21.549Z,30.30
2022-12-12T01:38:50.805Z,30.10
2022-12-12T01:41:18.351Z,33.87
2022-12-12T01:43:45.193Z,32.47
2022-12-12T01:46:30.545Z,29.33
2022-12-12T01:49:02.436Z,32.07
2022-12-12T01:51:30.521Z,35.40
2022-12-12T01:54:05.584Z,36.17
2022-12-12T01:56:33.497Z,30.97
2022-12-12T01:59:03.722Z,39.17
2022-12-12T02:01:31.692Z,34.60
2022-12-12T02:04:00.558Z,32.40
2022-12-12T02:06:31.709Z,32.70
2022-12-12T02:09:02.503Z,31.20
2022-12-12T02:11:30.912Z,32.33
2022-12-12T02:13:58.902Z,33.83
2022-12-12T02:16:31.417Z,31.23
2022-12-12T02:19:16.052Z,29.93
2022-12-12T02:21:53.652Z,34.47
2022-12-12T02:25:04.432Z,30.43
2022-12-12T02:28:09.363Z,30.60
2022-12-12T02:31:03.144Z,34.90
2022-12-12T02:33:50.253Z,30.27
2022-12-12T02:36:34.476Z,33.60
2022-12-12T02:39:16.481Z,33.17
2022-12-12T02:41:47.823Z,31.23
2022-12-12T02:44:25.828Z,35.30
2022-12-12T02:47:09.711Z,31.93
2022-12-12T02:50:02.428Z,32.20
2022-12-12T02:52:29.902Z,33.97
2022-12-12T02:54:56.842Z,35.83
2022-12-12T02:57:25.684Z,39.23
2022-12-12T03:00:00.320Z,35.37
2022-12-12T03:02:50.173Z,38.23
2022-12-12T03:05:54.570Z,34.77
2022-12-12T03:08:50.955Z,36.10
2022-12-12T03:11:47.766Z,32.87
2022-12-12T03:14:48.530Z,34.53
2022-12-12T03:17:32.408Z,33.77
2022-12-12T03:20:18.501Z,35.07
2022-12-12T03:23:00.718Z,33.77
2022-12-12T03:25:34.580Z,34.47
2022-12-12T03:28:13.151Z,34.37
2022-12-12T03:30:47.381Z,33.87
2022-12-12T03:33:37.045Z,35.90
2022-12-12T03:36:23.722Z,36.57
2022-12-12T03:38:57.360Z,39.73
2022-12-12T03:41:30.541Z,39.60
2022-12-12T03:44:20.568Z,32.40
2022-12-12T03:46:59.180Z,32.53
2022-12-12T03:49:44.346Z,36.73
2022-12-12T03:52:28.180Z,40.90
2022-12-12T03:55:33.469Z,42.27
2022-12-12T03:58:28.082Z,30.53
2022-12-12T04:00:58.001Z,34.33
2022-12-12T04:03:35.786Z,33.07
2022-12-12T04:06:26.839Z,36.40
2022-12-12T04:09:20.761Z,29.83
2022-12-12T04:12:29.118Z,39.20
2022-12-12T04:15:03.095Z,37.20
2022-12-12T04:18:08.788Z,30.50
2022-12-12T04:21:17.934Z,27.30
2022-12-12T04:24:11.597Z,36.97
2022-12-12T04:27:07.508Z,32.23
2022-12-12T04:29:36.919Z,32.63
2022-12-12T04:32:32.391Z,34.73
2022-12-12T04:35:20.024Z,38.23
2022-12-12T04:37:48.563Z,40.43
2022-12-12T04:40:42.005Z,33.57
2022-12-12T04:43:21.216Z,35.03
2022-12-12T04:45:56.084Z,34.80
2022-12-12T04:48:33.381Z,30.33
2022-12-12T04:51:06.258Z,26.77
2022-12-12T04:53:35.830Z,31.60
2022-12-12T04:56:09.523Z,29.23
2022-12-12T04:58:40.246Z,32.43
2022-12-12T05:01:30.712Z,33.20
2022-12-12T05:04:02.190Z,28.00
2022-12-12T05:06:40.471Z,29.83
2022-12-12T05:09:14.181Z,32.17
2022-12-12T05:11:42.643Z,37.60
2022-12-12T05:14:11.361Z,35.60
2022-12-12T05:16:53.071Z,34.73
2022-12-12T05:19:20.020Z,29.10
2022-12-12T05:21:46.704Z,31.57
2022-12-12T05:24:15.667Z,36.83
2022-12-12T05:26:42.492Z,39.27
2022-12-12T05:29:09.315Z,38.13
2022-12-12T05:31:36.444Z,36.50
2022-12-12T05:34:04.981Z,32.00
2022-12-12T05:36:31.680Z,38.77
2022-12-12T05:38:58.472Z,32.97
2022-12-12T05:41:25.223Z,35.40
2022-12-12T05:43:52.178Z,32.53
2022-12-12T05:46:18.893Z,34.40
2022-12-12T05:48:50.457Z,38.77
2022-12-12T05:51:20.651Z,34.63
2022-12-12T05:53:47.729Z,34.73
2022-12-12T05:56:14.542Z,35.27
2022-12-12T05:58:41.810Z,36.47
2022-12-12T06:01:09.121Z,39.00
2022-12-12T06:03:36.213Z,32.37
2022-12-12T06:06:03.932Z,35.07
2022-12-12T06:08:30.817Z,31.90
2022-12-12T06:10:57.622Z,37.90
2022-12-12T06:13:24.588Z,32.40
2022-12-12T06:15:51.383Z,32.73
2022-12-12T06:18:18.147Z,37.20
2022-12-12T06:20:44.898Z,38.30
2022-12-12T06:23:11.614Z,32.83
2022-12-12T06:25:38.323Z,34.27
2022-12-12T06:28:05.181Z,31.87
2022-12-12T06:30:32.215Z,35.70
2022-12-12T06:32:59.061Z,33.17
2022-12-12T06:35:25.809Z,30.70
2022-12-12T06:37:52.637Z,38.53
2022-12-12T06:40:19.562Z,40.63
2022-12-12T06:42:48.579Z,39.03
2022-12-12T06:45:18.453Z,32.07
2022-12-12T06:47:45.193Z,31.03
2022-12-12T06:50:12.065Z,31.83
2022-12-12T06:52:38.861Z,39.47
2022-12-12T06:55:06.469Z,35.57
2022-12-12T06:57:33.389Z,33.13
2022-12-12T07:00:04.176Z,34.10
2022-12-12T07:02:37.343Z,27.57
2022-12-12T07:05:04.229Z,34.70
2022-12-12T07:07:30.927Z,34.03
2022-12-12T07:09:57.785Z,36.37
2022-12-12T07:12:24.678Z,41.70
2022-12-12T07:14:51.517Z,35.73
2022-12-12T07:17:18.330Z,35.27
2022-12-12T07:19:45.155Z,32.80
2022-12-12T07:22:14.915Z,32.50
2022-12-12T07:24:41.690Z,34.20
2022-12-12T07:27:08.366Z,36.17
2022-12-12T07:29:35.094Z,32.70
2022-12-12T07:32:04.766Z,38.53
2022-12-12T07:34:31.543Z,38.33
2022-12-12T07:37:02.848Z,28.73
2022-12-12T07:39:34.037Z,27.90
2022-12-12T07:42:04.179Z,31.60
2022-12-12T07:44:30.879Z,35.20
2022-12-12T07:46:59.105Z,36.30
2022-12-12T07:49:26.226Z,38.67
2022-12-12T07:51:52.925Z,36.30
2022-12-12T07:54:19.704Z,32.23
2022-12-12T07:56:46.915Z,37.80
2022-12-12T07:59:13.819Z,28.17
2022-12-12T08:01:40.734Z,31.37
2022-12-12T08:04:07.472Z,33.90
2022-12-12T08:06:34.158Z,33.90
2022-12-12T08:09:01.189Z,38.63
2022-12-12T08:11:27.951Z,36.23
2022-12-12T08:13:55.098Z,35.17
2022-12-12T08:16:28.380Z,38.57
2022-12-12T08:18:56.861Z,35.00
2022-12-12T08:21:26.013Z,36.83
2022-12-12T08:24:02.188Z,32.17
2022-12-12T08:26:29.787Z,34.17
2022-12-12T08:28:57.637Z,40.97
2022-12-12T08:31:25.105Z,32.10
2022-12-12T08:33:53.158Z,37.57
2022-12-12T08:36:30.478Z,35.33
2022-12-12T08:38:58.374Z,34.60
2022-12-12T08:41:25.287Z,31.10
2022-12-12T08:43:52.093Z,29.97
2022-12-12T08:46:19.910Z,40.57
2022-12-12T08:48:47.668Z,32.60
2022-12-12T08:51:16.233Z,31.50
2022-12-12T08:53:48.310Z,34.40
2022-12-12T08:56:16.289Z,37.70
2022-12-12T08:58:43.515Z,37.67
2022-12-12T09:01:16.106Z,37.80
2022-12-12T09:03:42.821Z,33.00
2022-12-12T09:06:10.503Z,31.80
2022-12-12T09:08:38.370Z,36.37
2022-12-12T09:11:05.977Z,38.27
2022-12-12T09:13:33.190Z,35.73
2022-12-12T09:16:00.216Z,36.87
2022-12-12T09:18:27.153Z,30.90
2022-12-12T09:20:56.449Z,30.37
2022-12-12T09:23:26.531Z,32.60
2022-12-12T09:25:54.215Z,32.67
2022-12-12T09:28:23.249Z,42.23
2022-12-12T09:30:50.492Z,38.53
2022-12-12T09:33:18.313Z,33.63
2022-12-12T09:35:48.070Z,32.43
2022-12-12T09:38:19.211Z,38.13
2022-12-12T09:40:51.790Z,32.97
2022-12-12T09:43:27.720Z,37.63
2022-12-12T09:45:56.547Z,30.23
2022-12-12T09:48:35.643Z,31.77
2022-12-12T09:51:05.187Z,32.47
2022-12-12T09:53:32.130Z,33.83
2022-12-12T09:56:05.097Z,30.03
2022-12-12T09:59:24.530Z,31.07
2022-12-12T10:02:09.442Z,28.07
2022-12-12T10:04:50.782Z,30.50
2022-12-12T10:08:09.622Z,28.53
2022-12-12T10:10:44.194Z,31.20
2022-12-12T10:13:21.851Z,29.03
2022-12-12T10:15:56.469Z,26.73
2022-12-12T10:18:32.359Z,31.97
2022-12-12T10:21:02.569Z,27.03
2022-12-12T10:23:49.008Z,29.53
2022-12-12T10:26:19.533Z,33.60
2022-12-12T10:28:51.496Z,31.37
2022-12-12T10:31:34.813Z,30.53
2022-12-12T10:34:38.655Z,32.93
2022-12-12T10:37:12.691Z,35.70
2022-12-12T10:40:03.486Z,30.70
2022-12-12T10:42:33.066Z,30.80
2022-12-12T10:45:33.324Z,30.70
2022-12-12T10:48:01.003Z,27.83
2022-12-12T10:50:50.044Z,28.90
2022-12-12T10:53:17.030Z,29.60
2022-12-12T10:56:02.381Z,28.13
2022-12-12T10:58:39.975Z,27.30
2022-12-12T11:02:08.509Z,29.20
2022-12-12T11:04:27.358Z,28.57
2022-12-12T11:06:56.300Z,32.43
2022-12-12T11:09:28.751Z,29.10
2022-12-12T11:12:01.310Z,28.97
2022-12-12T11:14:47.580Z,27.50
2022-12-12T11:17:28.089Z,26.57
2022-12-12T11:19:57.448Z,28.03
2022-12-12T11:22:25.297Z,23.90
2022-12-12T11:24:53.455Z,31.30
2022-12-12T11:27:31.560Z,22.63
2022-12-12T11:30:19.067Z,23.37
2022-12-12T11:32:48.476Z,28.73
2022-12-12T11:35:41.139Z,27.50
2022-12-12T11:38:24.938Z,24.90
2022-12-12T11:41:02.125Z,23.97
2022-12-12T11:43:38.795Z,24.63
2022-12-12T11:46:18.428Z,22.10
2022-12-12T11:48:53.812Z,23.53
2022-12-12T11:51:46.095Z,22.83
2022-12-12T11:54:20.719Z,21.20
2022-12-12T11:56:53.186Z,24.20
2022-12-12T11:59:32.607Z,24.00
2022-12-12T12:02:27.770Z,22.73
2022-12-12T12:05:25.202Z,23.20
2022-12-12T12:08:24.963Z,24.50
2022-12-12T12:11:13.458Z,25.53
2022-12-12T12:13:52.328Z,24.10
2022-12-12T12:16:29.485Z,20.10
2022-12-12T12:19:26.698Z,24.47
2022-12-12T12:22:21.136Z,22.33
2022-12-12T12:25:12.861Z,23.20
2022-12-12T12:27:58.381Z,20.10
2022-12-12T12:30:30.255Z,26.07
2022-12-12T12:33:34.299Z,23.37
2022-12-12T12:36:22.681Z,21.97
2022-12-12T12:39:02.085Z,24.00
2022-12-12T12:42:02.915Z,23.97
2022-12-12T12:44:33.186Z,27.47
2022-12-12T12:47:09.174Z,25.60
2022-12-12T12:49:52.958Z,25.17
2022-12-12T12:52:36.443Z,22.60
2022-12-12T12:55:11.574Z,25.77
2022-12-12T12:57:42.629Z,26.17
2022-12-12T13:00:24.686Z,24.13
2022-12-12T13:03:19.212Z,22.33
2022-12-12T13:05:50.307Z,21.33
2022-12-12T13:09:01.789Z,23.03
2022-12-12T13:11:39.673Z,20.40
2022-12-12T13:14:16.362Z,23.47
2022-12-12T13:16:43.689Z,20.13
2022-12-12T13:19:35.648Z,21.10
2022-12-12T13:22:46.832Z,21.97
2022-12-12T13:25:44.069Z,21.17
2022-12-12T13:28:17.745Z,17.57
2022-12-12T13:31:13.375Z,20.83
2022-12-12T13:34:16.919Z,19.47
2022-12-12T13:36:48.624Z,20.33
2022-12-12T13:39:26.963Z,20.97
2022-12-12T13:41:56.739Z,17.63
2022-12-12T13:44:36.947Z,19.10
2022-12-12T13:47:12.122Z,18.80
2022-12-12T13:50:19.608Z,20.23
2022-12-12T13:53:06.373Z,21.57
2022-12-12T13:55:34.917Z,20.37
2022-12-12T13:58:04.887Z,19.57
2022-12-12T14:00:37.055Z,19.50
2022-12-12T14:03:06.924Z,20.97
2022-12-12T14:05:53.822Z,16.27
2022-12-12T14:08:31.156Z,19.87
2022-12-12T14:11:03.521Z,20.33
2022-12-12T14:13:37.005Z,21.63
2022-12-12T14:16:25.811Z,22.57
2022-12-12T14:19:00.752Z,19.57
2022-12-12T14:21:45.812Z,20.13
2022-12-12T14:24:34.226Z,20.53
2022-12-12T14:27:01.941Z,19.97
2022-12-12T14:29:31.845Z,21.10
2022-12-12T14:32:13.797Z,21.97
2022-12-12T14:34:58.982Z,21.43
2022-12-12T14:38:01.291Z,18.60
2022-12-12T14:40:39.200Z,17.57
2022-12-12T14:43:26.292Z,20.27
2022-12-12T14:45:56.344Z,23.23
2022-12-12T14:48:33.837Z,19.43
2022-12-12T14:51:10.944Z,20.37
2022-12-12T14:53:37.694Z,19.50
2022-12-12T14:56:08.846Z,19.87
2022-12-12T14:58:40.270Z,18.47
2022-12-12T15:01:07.568Z,15.70
2022-12-12T15:03:45.364Z,18.63
2022-12-12T15:06:40.057Z,18.17
2022-12-12T15:09:08.732Z,18.93
2022-12-12T15:11:36.363Z,20.03
2022-12-12T15:14:04.419Z,19.70
2022-12-12T15:16:47.705Z,19.57
2022-12-12T15:19:37.590Z,18.10
2022-12-12T15:22:29.859Z,21.70
2022-12-12T15:24:59.011Z,17.47
2022-12-12T15:27:28.779Z,21.57
2022-12-12T15:29:57.019Z,18.27
2022-12-12T15:32:26.180Z,18.20
2022-12-12T15:35:20.411Z,20.17
2022-12-12T15:37:59.157Z,19.20
2022-12-12T15:40:27.505Z,19.60
2022-12-12T15:43:05.670Z,22.77
2022-12-12T15:45:50.041Z,22.60
2022-12-12T15:48:18.762Z,18.83
2022-12-12T15:50:45.931Z,19.33
2022-12-12T15:53:24.715Z,20.47
2022-12-12T15:56:10.111Z,19.43
2022-12-12T15:58:46.919Z,24.40
2022-12-12T16:01:20.943Z,21.63
2022-12-12T16:04:10.228Z,23.27
2022-12-12T16:06:38.369Z,20.13
2022-12-12T16:09:07.996Z,22.93
2022-12-12T16:12:07.224Z,20.80
2022-12-12T16:14:42.545Z,23.60
2022-12-12T16:17:23.274Z,22.87
2022-12-12T16:19:55.986Z,21.40
2022-12-12T16:22:33.613Z,18.97
2022-12-12T16:25:32.524Z,22.67
2022-12-12T16:28:08.283Z,20.17
2022-12-12T16:30:36.334Z,22.10
2022-12-12T16:33:31.816Z,20.67
2022-12-12T16:36:01.588Z,26.10
2022-12-12T16:38:29.484Z,23.73
2022-12-12T16:40:59.945Z,21.63
2022-12-12T16:43:27.681Z,25.50
2022-12-12T16:45:56.184Z,24.00
2022-12-12T16:48:36.734Z,21.00
2022-12-12T16:51:06.274Z,20.80
2022-12-12T16:53:34.889Z,20.93
2022-12-12T16:56:02.472Z,25.17
2022-12-12T16:58:29.315Z,24.93
2022-12-12T17:00:56.393Z,22.17
2022-12-12T17:03:23.662Z,20.37
2022-12-12T17:05:51.251Z,24.73
2022-12-12T17:08:18.601Z,23.57
2022-12-12T17:10:50.266Z,24.60
2022-12-12T17:13:20.405Z,21.67
2022-12-12T17:15:47.330Z,24.23
2022-12-12T17:18:16.945Z,21.57
2022-12-12T17:20:43.985Z,22.40
2022-12-12T17:23:29.799Z,21.23
2022-12-12T17:26:03.613Z,19.37
2022-12-12T17:28:33.607Z,27.93
2022-12-12T17:31:01.205Z,19.77
2022-12-12T17:33:27.977Z,21.33
2022-12-12T17:36:03.999Z,20.97
2022-12-12T17:38:31.117Z,19.43
2022-12-12T17:40:58.600Z,25.23
2022-12-12T17:43:26.074Z,25.83
2022-12-12T17:46:04.470Z,18.40
2022-12-12T17:48:34.592Z,22.03
2022-12-12T17:51:06.346Z,24.43
2022-12-12T17:53:37.997Z,19.00
2022-12-12T17:56:09.727Z,18.80
2022-12-12T17:58:38.834Z,26.00
2022-12-12T18:01:10.155Z,25.90
2022-12-12T18:03:37.317Z,33.50
2022-12-12T18:06:04.397Z,22.00
2022-12-12T18:08:31.217Z,18.07
2022-12-12T18:10:58.187Z,24.03
2022-12-12T18:13:28.217Z,22.00
2022-12-12T18:16:02.013Z,24.30
2022-12-12T18:18:29.786Z,24.60
2022-12-12T18:20:56.798Z,25.60
2022-12-12T18:23:23.673Z,28.67
2022-12-12T18:25:50.471Z,28.20
2022-12-12T18:28:17.328Z,21.80
2022-12-12T18:30:44.719Z,26.70
2022-12-12T18:33:11.545Z,24.43
2022-12-12T18:35:38.260Z,26.03
2022-12-12T18:38:05.054Z,28.17
2022-12-12T18:40:32.127Z,25.17
2022-12-12T18:42:58.981Z,24.77
2022-12-12T18:45:25.691Z,29.30
2022-12-12T18:47:52.480Z,22.87
2022-12-12T18:50:19.324Z,24.57
2022-12-12T18:52:49.016Z,26.60
2022-12-12T18:55:18.890Z,25.77
2022-12-12T18:57:45.594Z,31.60
2022-12-12T19:00:13.190Z,27.27
2022-12-12T19:02:40.603Z,23.47
2022-12-12T19:05:07.774Z,26.30
2022-12-12T19:07:34.852Z,22.70
2022-12-12T19:10:01.793Z,24.43
2022-12-12T19:12:29.201Z,29.30
2022-12-12T19:17:45.931Z,23.23
2022-12-12T19:20:13.123Z,30.77
2022-12-12T19:22:47.317Z,28.90
2022-12-12T19:25:20.348Z,31.17
2022-12-12T19:27:47.612Z,27.43
2022-12-12T19:30:16.037Z,23.93
2022-12-12T19:32:43.458Z,24.40
2022-12-12T19:35:10.515Z,31.40
2022-12-12T19:37:37.366Z,29.20
2022-12-12T19:40:04.386Z,31.80
2022-12-12T19:42:31.175Z,26.63
2022-12-12T19:44:57.912Z,28.80
2022-12-12T19:47:25.584Z,22.17
2022-12-12T19:49:52.309Z,25.67
2022-12-12T19:52:19.730Z,26.40
2022-12-12T19:54:46.538Z,30.93
2022-12-12T19:57:13.237Z,26.90
2022-12-12T19:59:40.108Z,27.80
2022-12-12T20:02:11.424Z,26.30
2022-12-12T20:04:40.554Z,21.83
2022-12-12T20:07:07.306Z,26.13
2022-12-12T20:09:36.388Z,25.37
2022-12-12T20:12:03.633Z,23.47
2022-12-12T20:14:33.063Z,28.77
2022-12-12T20:17:00.565Z,28.13
2022-12-12T20:19:27.889Z,28.50
2022-12-12T20:22:02.129Z,26.33
2022-12-12T20:24:33.883Z,25.33
2022-12-12T20:27:03.274Z,22.50
2022-12-12T20:29:30.603Z,20.57
2022-12-12T20:31:59.683Z,28.63
2022-12-12T20:34:27.195Z,25.63
2022-12-12T20:36:55.752Z,20.17
2022-12-12T20:39:25.137Z,18.23
2022-12-12T20:41:53.563Z,21.10
2022-12-12T20:44:20.595Z,20.83
2022-12-12T20:46:47.487Z,24.17
2022-12-12T20:49:19.690Z,23.37
2022-12-12T20:51:55.871Z,21.97
2022-12-12T20:54:24.560Z,22.87
2022-12-12T20:56:52.160Z,21.60
2022-12-12T20:59:18.942Z,27.63
2022-12-12T21:01:48.793Z,23.50
2022-12-12T21:04:15.749Z,23.17
2022-12-12T21:06:44.646Z,22.67
2022-12-12T21:09:15.099Z,27.73
2022-12-12T21:11:44.603Z,25.70
2022-12-12T21:14:11.370Z,32.17
2022-12-12T21:16:40.148Z,21.83
2022-12-12T21:19:12.312Z,26.23
2022-12-12T21:21:41.429Z,27.63
2022-12-12T21:24:08.268Z,25.93
2022-12-12T21:26:35.338Z,29.43
2022-12-12T21:29:04.763Z,27.50
2022-12-12T21:31:34.959Z,24.20
2022-12-12T21:34:02.177Z,25.07
2022-12-12T21:36:30.386Z,30.17
2022-12-12T21:38:58.498Z,27.73
2022-12-12T21:41:26.152Z,29.70
2022-12-12T21:43:53.131Z,28.30
2022-12-12T21:46:22.721Z,31.30
2022-12-12T21:49:10.659Z,26.97
2022-12-12T21:51:38.701Z,28.13
2022-12-12T21:54:06.525Z,25.07
2022-12-12T21:56:36.373Z,32.63
2022-12-12T21:59:03.763Z,29.47
2022-12-12T22:01:32.380Z,30.43
2022-12-12T22:04:00.084Z,30.23
2022-12-12T22:06:29.885Z,26.73
2022-12-12T22:08:57.738Z,28.00
2022-12-12T22:11:40.853Z,22.30
2022-12-12T22:14:12.268Z,28.83
2022-12-12T22:16:39.301Z,29.47
2022-12-12T22:19:08.601Z,23.03
2022-12-12T22:21:38.467Z,26.30
2022-12-12T22:24:08.092Z,25.30
2022-12-12T22:26:38.173Z,28.63
2022-12-12T22:29:08.686Z,26.17
2022-12-12T22:31:39.865Z,30.10
2022-12-12T22:34:10.488Z,28.87
2022-12-12T22:36:38.620Z,27.33
2022-12-12T22:39:08.450Z,29.27
2022-12-12T22:41:35.459Z,26.10
2022-12-12T22:44:04.828Z,24.60
2022-12-12T22:46:36.997Z,26.00
2022-12-12T22:49:08.460Z,24.63
2022-12-12T22:51:35.274Z,27.03
2022-12-12T22:54:03.911Z,27.63
2022-12-12T22:56:33.083Z,27.63
2022-12-12T22:59:00.338Z,25.70
2022-12-12T23:01:28.157Z,28.70
2022-12-12T23:03:56.128Z,31.13
2022-12-12T23:06:25.852Z,29.57
2022-12-12T23:08:55.698Z,26.17
2022-12-12T23:11:24.541Z,34.57
2022-12-12T23:13:54.275Z,24.93
2022-12-12T23:16:22.051Z,28.60
2022-12-12T23:18:53.828Z,27.87
2022-12-12T23:21:22.432Z,28.03
2022-12-12T23:23:49.408Z,25.40
2022-12-12T23:26:27.036Z,24.43
2022-12-12T23:28:58.559Z,26.33
2022-12-12T23:31:28.873Z,27.63
2022-12-12T23:33:58.098Z,25.07
2022-12-12T23:36:26.962Z,28.43
2022-12-12T23:39:04.049Z,23.80
2022-12-12T23:41:30.874Z,26.60
2022-12-12T23:43:57.853Z,27.80
2022-12-12T23:46:29.035Z,23.53
2022-12-12T23:49:07.881Z,28.93
2022-12-12T23:51:37.396Z,28.50
2022-12-12T23:54:06.476Z,23.43
2022-12-12T23:56:33.636Z,27.87
2022-12-12T23:59:01.135Z,30.73
